Time;durP1;ratioP1;P1;durP2;ratioP2;P2;SDS_P1;SDS_P2;PMS_P1;PMS_P2;Temp;Humidity;BMP_temperature;BMP_pressure;BME280_temperature;BME280_humidity;BME280_pressure;Samples;Min_cycle;Max_cycle;Signal;HPM_P1;HPM_P2
2023/08/08 00:02:05;;;;;;;1.80;0.80;;;;;;;16.38;75.61;94669.03;5090438;28;20085;-76
2023/08/08 00:04:30;;;;;;;1.98;0.80;;;;;;;16.24;75.12;94662.66;5091482;28;20028;-76
2023/08/08 00:06:56;;;;;;;1.60;0.77;;;;;;;16.22;75.04;94652.38;5073556;28;20106;-75
2023/08/08 00:09:22;;;;;;;1.65;0.90;;;;;;;16.20;73.95;94661.38;5090189;28;20036;-76
2023/08/08 00:11:48;;;;;;;1.48;0.82;;;;;;;16.20;74.37;94656.13;5073062;28;20485;-75
2023/08/08 00:14:13;;;;;;;1.23;0.68;;;;;;;15.97;74.96;94656.81;5090368;28;20036;-75
2023/08/08 00:16:39;;;;;;;1.63;0.70;;;;;;;16.06;75.03;94661.03;5090173;28;20073;-75
2023/08/08 00:19:04;;;;;;;1.40;0.90;;;;;;;15.95;75.63;94643.03;5089991;28;20496;-75
2023/08/08 00:21:30;;;;;;;1.45;0.85;;;;;;;15.98;75.44;94663.66;5072956;28;20031;-75
2023/08/08 00:23:55;;;;;;;1.50;0.93;;;;;;;16.06;76.26;94671.53;5090803;28;20040;-75
2023/08/08 00:26:21;;;;;;;1.35;0.90;;;;;;;15.94;76.08;94674.66;5089902;28;20493;-76
2023/08/08 00:28:46;;;;;;;1.63;0.90;;;;;;;15.89;76.27;94688.22;5090038;28;20036;-75
2023/08/08 00:31:11;;;;;;;1.67;1.13;;;;;;;16.01;76.01;94686.09;5089957;28;20405;-75
2023/08/08 00:33:37;;;;;;;1.67;1.00;;;;;;;15.93;74.52;94686.91;5090004;28;20024;-75
2023/08/08 00:36:02;;;;;;;2.88;1.10;;;;;;;15.91;74.53;94683.66;5056336;28;20017;-75
2023/08/08 00:38:28;;;;;;;2.35;1.27;;;;;;;15.72;75.12;94682.16;5089873;28;20085;-75
2023/08/08 00:40:53;;;;;;;1.40;0.90;;;;;;;15.74;76.18;94679.34;5072630;28;20031;-75
2023/08/08 00:43:18;;;;;;;2.28;1.38;;;;;;;15.77;74.79;94677.25;5089942;28;20386;-75
2023/08/08 00:45:44;;;;;;;1.90;1.20;;;;;;;15.68;76.08;94682.59;5089554;28;20024;-75
2023/08/08 00:48:09;;;;;;;1.75;1.10;;;;;;;15.72;76.25;94663.00;5089886;28;20031;-75
2023/08/08 00:50:35;;;;;;;2.38;1.20;;;;;;;15.64;75.97;94680.31;5072802;28;20036;-75
2023/08/08 00:53:01;;;;;;;2.28;1.00;;;;;;;15.84;73.89;94687.88;5072964;28;20020;-75
2023/08/08 00:55:26;;;;;;;1.85;0.93;;;;;;;15.64;74.92;94655.94;5091327;28;20039;-75
2023/08/08 00:57:52;;;;;;;1.30;1.00;;;;;;;15.64;74.45;94682.91;5093353;28;20409;-75
2023/08/08 01:00:18;;;;;;;1.67;1.20;;;;;;;15.51;72.94;94676.50;5094791;28;20032;-75
2023/08/08 01:02:43;;;;;;;1.67;1.00;;;;;;;15.46;73.22;94679.63;5093268;28;20016;-75
2023/08/08 01:05:08;;;;;;;1.88;1.08;;;;;;;15.57;75.07;94679.31;5094849;28;20390;-75
2023/08/08 01:07:54;;;;;;;3.95;1.40;;;;;;;15.40;74.96;94654.06;5093228;28;20028;-75
2023/08/08 01:10:23;;;;;;;1.92;1.20;;;;;;;15.24;75.32;94669.72;5076306;28;20050;-75
2023/08/08 01:12:52;;;;;;;1.80;1.40;;;;;;;15.48;75.09;94685.50;5075867;28;20032;-74
2023/08/08 01:15:17;;;;;;;1.60;1.20;;;;;;;15.23;73.51;94686.41;5092902;28;20074;-75
2023/08/08 01:17:43;;;;;;;2.22;1.20;;;;;;;15.31;74.98;94686.44;5075931;28;20045;-75
2023/08/08 01:20:10;;;;;;;2.17;1.38;;;;;;;15.06;74.24;94699.44;5075816;28;20056;-75
2023/08/08 01:23:20;;;;;;;1.75;1.30;;;;;;;15.32;72.89;94699.38;5075880;28;20020;-74
2023/08/08 01:25:46;;;;;;;2.00;1.58;;;;;;;15.39;74.82;94696.94;5093921;28;20169;-75
2023/08/08 01:28:11;;;;;;;1.80;1.23;;;;;;;14.90;72.79;94700.16;5092718;28;20032;-75
2023/08/08 01:30:36;;;;;;;1.73;1.20;;;;;;;14.98;73.47;94713.28;5092507;28;20301;-75
2023/08/08 01:33:03;;;;;;;1.90;1.20;;;;;;;14.98;71.91;94713.28;5092576;28;20028;-75
2023/08/08 01:35:30;;;;;;;2.10;1.23;;;;;;;15.08;71.20;94702.72;5092792;28;20043;-75
2023/08/08 01:38:00;;;;;;;1.45;1.00;;;;;;;14.98;71.72;94694.16;5092478;28;20039;-75
2023/08/08 01:40:26;;;;;;;2.42;1.20;;;;;;;15.15;72.02;94705.50;5092827;28;20028;-75
2023/08/08 01:42:51;;;;;;;1.50;1.02;;;;;;;14.91;73.73;94696.59;5092421;28;20036;-74
2023/08/08 01:45:17;;;;;;;2.45;1.30;;;;;;;15.02;72.86;94707.78;5075688;28;20028;-75
2023/08/08 01:47:42;;;;;;;1.70;1.00;;;;;;;15.09;73.83;94730.50;5075469;28;20477;-75
2023/08/08 01:50:08;;;;;;;1.50;1.10;;;;;;;15.06;71.23;94719.53;5092305;28;20063;-75
2023/08/08 01:52:34;;;;;;;2.60;1.10;;;;;;;15.15;70.46;94735.09;5092242;28;20050;-76
2023/08/08 01:55:00;;;;;;;2.20;1.30;;;;;;;15.03;69.64;94744.22;5092324;28;20489;-75
2023/08/08 01:57:25;;;;;;;1.60;1.13;;;;;;;15.07;70.21;94748.19;5075372;28;20480;-75
2023/08/08 01:59:50;;;;;;;1.92;1.25;;;;;;;15.08;72.04;94749.81;5075338;28;20036;-75
2023/08/08 02:02:17;;;;;;;2.05;1.20;;;;;;;15.02;70.13;94755.66;5093196;28;20028;-75
2023/08/08 02:04:43;;;;;;;1.70;1.13;;;;;;;15.12;71.53;94756.34;5091732;28;20471;-74
2023/08/08 02:07:08;;;;;;;2.40;1.17;;;;;;;15.05;72.13;94744.88;5074973;28;20020;-75
2023/08/08 02:09:33;;;;;;;1.75;1.30;;;;;;;15.16;70.94;94751.66;5091836;28;20394;-76
2023/08/08 02:11:59;;;;;;;2.35;1.20;;;;;;;15.06;70.22;94746.53;5058445;28;20035;-75
2023/08/08 02:14:24;;;;;;;3.10;1.13;;;;;;;15.03;70.80;94748.63;5092007;28;20032;-75
2023/08/08 02:16:50;;;;;;;1.60;1.13;;;;;;;14.95;69.39;94745.00;5091678;28;20101;-75
2023/08/08 02:19:15;;;;;;;1.70;1.30;;;;;;;14.78;69.78;94739.81;5058059;28;20052;-76
2023/08/08 02:21:40;;;;;;;1.85;1.33;;;;;;;14.92;70.44;94760.19;5093010;28;20039;-75
2023/08/08 02:24:06;;;;;;;2.00;1.30;;;;;;;15.02;69.98;94776.59;5091557;28;20101;-75
2023/08/08 02:26:31;;;;;;;2.15;1.27;;;;;;;14.89;70.09;94752.66;5057934;28;20036;-75
2023/08/08 02:28:57;;;;;;;1.58;1.20;;;;;;;14.77;70.31;94782.66;5092805;28;20035;-75
2023/08/08 02:31:22;;;;;;;2.95;1.50;;;;;;;14.81;70.88;94778.75;5074573;28;20024;-75
2023/08/08 02:33:50;;;;;;;2.35;1.70;;;;;;;14.92;69.83;94796.78;5091392;28;20539;-75
2023/08/08 02:36:15;;;;;;;5.43;1.48;;;;;;;14.87;70.79;94781.56;5074615;28;20032;-76
2023/08/08 02:38:40;;;;;;;1.73;1.25;;;;;;;14.79;70.21;94770.22;5091251;28;20039;-75
2023/08/08 02:41:06;;;;;;;1.80;1.40;;;;;;;14.90;69.78;94785.66;5091341;28;20040;-75
2023/08/08 02:43:31;;;;;;;1.80;1.30;;;;;;;14.88;70.92;94783.22;5092314;28;20478;-75
2023/08/08 02:45:57;;;;;;;3.22;1.60;;;;;;;14.88;70.38;94785.81;5074123;28;20036;-75
2023/08/08 02:48:22;;;;;;;1.80;1.38;;;;;;;15.02;70.16;94802.75;5092177;28;20024;-75
2023/08/08 02:50:47;;;;;;;3.55;1.20;;;;;;;14.88;69.47;94796.28;5090830;28;20043;-75
2023/08/08 02:53:13;;;;;;;2.20;1.60;;;;;;;14.94;69.93;94789.63;5090938;28;20534;-75
2023/08/08 02:55:38;;;;;;;3.50;1.60;;;;;;;14.86;69.23;94794.78;5092496;28;20028;-76
2023/08/08 02:58:03;;;;;;;1.83;1.40;;;;;;;14.81;69.35;94804.88;5090906;28;20020;-76
2023/08/08 03:00:29;;;;;;;1.90;1.45;;;;;;;14.87;69.92;94805.09;5092412;28;20087;-76
2023/08/08 03:02:54;;;;;;;2.20;1.67;;;;;;;14.90;70.50;94811.81;5057114;28;20032;-75
2023/08/08 03:05:20;;;;;;;1.83;1.40;;;;;;;14.91;69.70;94792.53;5092279;28;20470;-75
2023/08/08 03:07:45;;;;;;;1.98;1.60;;;;;;;15.06;69.29;94809.31;5073691;28;20490;-75
2023/08/08 03:10:11;;;;;;;2.05;1.70;;;;;;;14.93;71.74;94803.66;5090625;28;20097;-75
2023/08/08 03:12:37;;;;;;;2.58;1.90;;;;;;;14.91;70.75;94805.63;5090738;28;20433;-75
2023/08/08 03:15:04;;;;;;;2.25;1.70;;;;;;;14.87;71.25;94805.09;5092062;28;20048;-75
2023/08/08 03:17:29;;;;;;;2.22;1.70;;;;;;;14.89;71.08;94810.19;5090589;28;20111;-75
2023/08/08 03:19:55;;;;;;;2.53;1.80;;;;;;;14.69;70.89;94792.06;5072918;28;20635;-75
2023/08/08 03:22:20;;;;;;;1.98;1.63;;;;;;;14.56;69.12;94780.38;5091658;28;20398;-75
2023/08/08 03:24:45;;;;;;;2.20;1.63;;;;;;;15.00;71.58;94811.72;5073402;28;20047;-75
2023/08/08 03:27:11;;;;;;;2.70;1.80;;;;;;;14.86;70.54;94787.75;5090317;28;20031;-75
2023/08/08 03:29:36;;;;;;;3.03;1.77;;;;;;;15.00;70.75;94811.72;5090321;28;20047;-75
2023/08/08 03:32:03;;;;;;;2.33;1.95;;;;;;;15.04;70.93;94821.72;5090292;28;20028;-75
2023/08/08 03:34:29;;;;;;;3.40;1.90;;;;;;;14.95;69.87;94828.69;5090332;28;20032;-75
2023/08/08 03:36:54;;;;;;;2.42;1.90;;;;;;;14.81;69.07;94817.97;5073363;28;20051;-74
2023/08/08 03:39:20;;;;;;;2.30;1.90;;;;;;;15.03;68.99;94819.25;5090103;28;20032;-75
2023/08/08 03:41:45;;;;;;;2.45;2.08;;;;;;;15.04;70.27;94832.16;5073140;28;20032;-75
2023/08/08 03:44:11;;;;;;;2.42;2.13;;;;;;;14.93;70.67;94832.41;5089911;28;20032;-75
2023/08/08 03:46:36;;;;;;;2.88;2.13;;;;;;;14.85;69.91;94829.75;5089972;28;20140;-75
2023/08/08 03:49:01;;;;;;;2.90;2.08;;;;;;;14.81;70.12;94829.25;5073235;28;20032;-74
2023/08/08 03:51:27;;;;;;;2.25;1.90;;;;;;;14.85;70.07;94840.22;5073145;28;20489;-75
2023/08/08 03:53:52;;;;;;;2.33;2.13;;;;;;;14.86;71.15;94829.59;5089798;28;20063;-75
2023/08/08 03:56:18;;;;;;;3.03;2.00;;;;;;;14.85;69.38;94821.91;5073149;28;20032;-75
2023/08/08 03:58:43;;;;;;;2.45;1.92;;;;;;;14.92;69.92;94825.56;5072977;28;20035;-75
2023/08/08 04:01:08;;;;;;;4.50;2.05;;;;;;;14.91;71.21;94816.91;5056244;28;20497;-75
2023/08/08 04:03:34;;;;;;;4.68;2.50;;;;;;;14.86;70.82;94813.91;5056249;28;20032;-76
2023/08/08 04:05:59;;;;;;;3.35;2.25;;;;;;;14.93;69.63;94829.81;5072871;28;20390;-75
2023/08/08 04:08:25;;;;;;;3.50;2.30;;;;;;;14.78;70.15;94820.88;5089737;28;20035;-76
2023/08/08 04:10:50;;;;;;;3.35;2.20;;;;;;;15.02;69.76;94835.94;5089485;28;20028;-75
2023/08/08 04:13:15;;;;;;;2.40;2.20;;;;;;;15.02;69.18;94838.56;5089751;28;20035;-75
2023/08/08 04:15:41;;;;;;;2.20;1.88;;;;;;;14.87;68.70;94848.72;5091287;28;20024;-76
2023/08/08 04:18:06;;;;;;;2.70;2.05;;;;;;;14.93;68.48;94848.97;5072779;28;20028;-76
2023/08/08 04:20:33;;;;;;;2.40;2.20;;;;;;;15.02;68.46;94860.28;5055931;28;20048;-76
2023/08/08 04:22:58;;;;;;;7.55;2.45;;;;;;;14.93;68.32;94871.66;5072801;28;20020;-76
2023/08/08 04:25:24;;;;;;;3.03;2.17;;;;;;;15.00;68.65;94845.72;5089782;28;20035;-75
2023/08/08 04:27:49;;;;;;;3.38;2.42;;;;;;;15.17;68.53;94874.44;5072788;28;20055;-75
2023/08/08 04:30:15;;;;;;;2.60;2.40;;;;;;;15.24;69.76;94871.22;5072765;28;20058;-75
2023/08/08 04:32:40;;;;;;;2.88;2.40;;;;;;;15.27;68.04;94870.94;5076630;28;20036;-75
2023/08/08 04:35:06;;;;;;;3.67;3.00;;;;;;;15.23;70.29;94867.78;5093457;28;20028;-75
2023/08/08 04:37:31;;;;;;;2.90;2.58;;;;;;;15.22;69.79;94878.41;5093523;28;20055;-74
2023/08/08 04:39:57;;;;;;;2.95;2.47;;;;;;;15.33;70.11;94881.59;5093523;28;20405;-75
2023/08/08 04:42:22;;;;;;;2.50;2.30;;;;;;;15.28;68.78;94877.78;5076619;28;20024;-75
2023/08/08 04:44:47;;;;;;;2.75;2.40;;;;;;;15.07;69.89;94851.97;5094866;28;20032;-75
2023/08/08 04:47:13;;;;;;;3.95;2.60;;;;;;;15.29;69.30;94874.19;5076468;28;20485;-75
2023/08/08 04:49:38;;;;;;;3.63;2.50;;;;;;;15.40;68.20;94873.94;5093030;28;20529;-75
2023/08/08 04:52:04;;;;;;;2.85;2.50;;;;;;;15.51;67.76;94880.69;5076400;28;20478;-75
2023/08/08 04:54:29;;;;;;;3.40;2.50;;;;;;;15.51;66.90;94870.22;5093302;28;20050;-75
2023/08/08 04:56:55;;;;;;;5.22;2.50;;;;;;;15.70;67.46;94879.69;5093282;28;20036;-75
2023/08/08 04:59:20;;;;;;;3.42;2.28;;;;;;;15.90;66.97;94869.78;5093231;28;20033;-75
2023/08/08 05:01:45;;;;;;;2.55;2.33;;;;;;;15.84;66.79;94845.03;5094368;28;20386;-75
2023/08/08 05:04:11;;;;;;;2.92;2.20;;;;;;;16.11;67.74;94869.38;5059308;28;20036;-75
2023/08/08 05:06:36;;;;;;;2.60;2.30;;;;;;;16.04;64.02;94861.31;5076114;28;20028;-75
2023/08/08 05:09:02;;;;;;;3.75;2.20;;;;;;;15.92;64.46;94867.84;5092799;28;20055;-74
2023/08/08 05:11:27;;;;;;;6.72;2.53;;;;;;;15.99;65.29;94895.88;5093018;28;20032;-76
2023/08/08 05:13:52;;;;;;;2.85;2.50;;;;;;;16.02;66.15;94885.06;5059148;28;20040;-75
2023/08/08 05:16:18;;;;;;;3.08;2.17;;;;;;;15.85;64.59;94889.44;5092746;28;20028;-75
2023/08/08 05:18:46;;;;;;;2.53;2.17;;;;;;;16.08;64.74;94910.63;5075847;28;20574;-75
2023/08/08 05:21:12;;;;;;;3.58;2.40;;;;;;;16.31;64.67;94921.34;5076417;28;20109;-75
2023/08/08 05:23:37;;;;;;;2.75;2.13;;;;;;;16.33;63.75;94933.50;5092614;28;20017;-74
2023/08/08 05:26:03;;;;;;;2.78;2.30;;;;;;;16.12;63.63;94926.03;5092598;28;20496;-75
2023/08/08 05:28:28;;;;;;;2.42;2.13;;;;;;;16.38;63.83;94946.91;5075667;28;20024;-75
2023/08/08 05:30:54;;;;;;;2.40;2.00;;;;;;;16.35;63.10;94937.56;5092444;28;20032;-75
2023/08/08 05:33:19;;;;;;;2.40;2.15;;;;;;;16.22;62.89;94942.47;5075555;28;20024;-74
2023/08/08 05:35:45;;;;;;;2.50;2.30;;;;;;;16.28;62.96;94947.06;5075601;28;20035;-75
2023/08/08 05:38:10;;;;;;;2.30;2.10;;;;;;;16.44;63.03;94938.44;5058806;28;20069;-75
2023/08/08 05:40:36;;;;;;;2.22;2.03;;;;;;;16.65;62.34;94938.78;5092466;28;20039;-75
2023/08/08 05:43:04;;;;;;;4.95;2.10;;;;;;;16.90;62.24;94957.22;5093107;28;20028;-75
2023/08/08 05:45:29;;;;;;;2.47;2.05;;;;;;;16.84;60.83;94945.56;5092446;28;20039;-75
2023/08/08 05:47:56;;;;;;;2.20;1.90;;;;;;;17.05;60.74;94947.75;5075373;28;20024;-74
2023/08/08 05:50:21;;;;;;;5.18;2.03;;;;;;;17.06;60.09;94957.25;5093696;28;20482;-75
2023/08/08 05:52:47;;;;;;;3.15;2.00;;;;;;;17.16;60.59;94943.94;5075134;28;20058;-74
2023/08/08 05:55:12;;;;;;;2.15;1.88;;;;;;;17.41;59.81;94961.34;5075241;28;20036;-74
2023/08/08 05:57:37;;;;;;;3.35;1.90;;;;;;;17.66;59.60;94961.28;5058450;28;20028;-75
2023/08/08 06:00:05;;;;;;;2.25;1.90;;;;;;;17.78;58.27;94965.25;5074949;28;20039;-74
2023/08/08 06:02:30;;;;;;;2.38;1.83;;;;;;;17.79;57.35;94969.53;5091942;28;20412;-74
2023/08/08 06:04:56;;;;;;;3.05;2.30;;;;;;;17.77;57.55;94966.19;5091978;28;20040;-75
2023/08/08 06:07:21;;;;;;;2.33;2.03;;;;;;;17.89;57.75;94966.72;5093157;28;20240;-75
2023/08/08 06:09:46;;;;;;;2.70;2.10;;;;;;;17.82;56.60;94979.69;5091715;28;20040;-75
2023/08/08 06:12:12;;;;;;;2.35;1.95;;;;;;;17.81;57.55;94969.38;5058178;28;20031;-75
2023/08/08 06:14:37;;;;;;;2.65;2.20;;;;;;;17.59;56.71;94983.97;5074715;28;20032;-75
2023/08/08 06:17:03;;;;;;;2.60;2.20;;;;;;;17.51;56.75;94979.53;5091688;28;20047;-74
2023/08/08 06:19:28;;;;;;;3.45;2.70;;;;;;;17.41;57.12;94981.50;5074452;28;20495;-75
2023/08/08 06:21:54;;;;;;;3.58;2.60;;;;;;;17.39;57.30;94988.75;5091671;28;20039;-75
2023/08/08 06:24:19;;;;;;;3.17;2.80;;;;;;;17.26;57.67;94988.41;5091533;28;20036;-74
2023/08/08 06:26:45;;;;;;;3.63;2.88;;;;;;;17.17;58.56;94974.47;5091368;28;20024;-75
2023/08/08 06:29:10;;;;;;;3.15;2.80;;;;;;;17.28;58.34;94987.28;5074381;28;20040;-75
2023/08/08 06:31:36;;;;;;;2.95;2.42;;;;;;;17.51;57.01;94981.34;5092533;28;20024;-74
2023/08/08 06:34:02;;;;;;;2.95;2.50;;;;;;;17.83;57.75;94962.97;5091317;28;20028;-74
2023/08/08 06:36:27;;;;;;;3.42;2.40;;;;;;;18.08;56.12;94968.97;5091299;28;20491;-75
2023/08/08 06:38:52;;;;;;;2.92;2.17;;;;;;;18.21;54.64;94955.28;5091125;28;20055;-75
2023/08/08 06:41:18;;;;;;;3.97;1.90;;;;;;;18.58;52.22;94966.94;5074315;28;20024;-74
2023/08/08 06:43:43;;;;;;;3.30;1.83;;;;;;;18.60;52.68;94969.41;5091020;28;20032;-74
2023/08/08 06:46:09;;;;;;;5.22;1.85;;;;;;;18.59;52.09;94968.59;5092274;28;20024;-75
2023/08/08 06:48:34;;;;;;;1.98;1.65;;;;;;;18.75;51.97;94959.81;5090988;28;20493;-75
2023/08/08 06:50:59;;;;;;;2.33;1.65;;;;;;;19.13;51.36;94979.13;5091093;28;20028;-74
2023/08/08 06:53:26;;;;;;;1.70;1.33;;;;;;;19.16;48.47;94980.59;5091286;28;20027;-75
2023/08/08 06:55:51;;;;;;;1.90;1.60;;;;;;;19.06;48.00;94980.84;5092060;28;20417;-75
2023/08/08 06:58:16;;;;;;;2.72;1.40;;;;;;;19.11;49.17;94975.88;5090940;28;20035;-74
2023/08/08 07:00:42;;;;;;;3.03;1.60;;;;;;;19.04;49.45;94988.09;5090887;28;20089;-75
2023/08/08 07:03:07;;;;;;;2.30;1.70;;;;;;;18.68;49.07;94951.75;5073860;28;20471;-75
2023/08/08 07:05:33;;;;;;;3.25;1.58;;;;;;;19.01;49.61;94975.28;5090850;28;20039;-75
2023/08/08 07:07:58;;;;;;;1.90;1.70;;;;;;;19.16;50.06;94978.78;5073798;28;20032;-75
2023/08/08 07:10:23;;;;;;;2.13;1.75;;;;;;;19.27;50.36;94985.44;5090618;28;20028;-75
2023/08/08 07:12:49;;;;;;;2.17;1.60;;;;;;;19.10;50.16;94976.84;5092081;28;20024;-75
2023/08/08 07:15:15;;;;;;;3.40;1.58;;;;;;;19.06;49.06;94987.91;5090699;28;20397;-75
2023/08/08 07:17:40;;;;;;;3.75;1.50;;;;;;;18.86;48.50;94993.63;5073599;28;20102;-74
2023/08/08 07:20:06;;;;;;;1.77;1.30;;;;;;;19.02;47.34;94981.34;5073511;28;20063;-74
2023/08/08 07:22:32;;;;;;;1.85;1.30;;;;;;;19.03;47.56;94978.56;5090339;28;20139;-75
2023/08/08 07:24:58;;;;;;;2.45;1.40;;;;;;;19.10;47.62;94984.75;5073255;28;20039;-75
2023/08/08 07:27:23;;;;;;;1.90;1.40;;;;;;;19.50;48.38;94981.97;5090381;28;20052;-75
2023/08/08 07:29:49;;;;;;;3.38;1.48;;;;;;;19.49;47.17;94994.31;5090195;28;20485;-75
2023/08/08 07:32:14;;;;;;;1.88;1.40;;;;;;;19.39;47.21;94991.13;5090311;28;20064;-75
2023/08/08 07:34:39;;;;;;;1.70;1.35;;;;;;;19.24;46.99;94992.88;5090044;28;20405;-74
2023/08/08 07:37:05;;;;;;;3.22;1.50;;;;;;;19.23;47.02;94991.25;5090250;28;20028;-75
2023/08/08 07:39:30;;;;;;;2.10;1.40;;;;;;;19.40;46.00;94985.69;5073317;28;20028;-74
2023/08/08 07:41:57;;;;;;;1.75;1.30;;;;;;;19.34;45.42;94969.78;5056550;28;20512;-75
2023/08/08 07:44:22;;;;;;;1.70;1.20;;;;;;;19.28;44.65;94981.00;5073276;28;20025;-75
2023/08/08 07:46:48;;;;;;;1.40;1.08;;;;;;;19.22;44.79;94982.50;5073314;28;20283;-75
2023/08/08 07:49:13;;;;;;;5.18;1.00;;;;;;;19.21;45.48;95001.94;5089902;28;20028;-75
2023/08/08 07:51:38;;;;;;;1.60;1.00;;;;;;;19.34;45.19;95001.38;5089845;28;20028;-75
2023/08/08 07:54:08;;;;;;;1.88;1.10;;;;;;;19.27;43.46;94988.06;5089685;28;20403;-75
2023/08/08 07:56:34;;;;;;;1.27;0.90;;;;;;;19.39;44.30;94988.50;5057415;28;20035;-75
2023/08/08 07:58:59;;;;;;;2.03;1.20;;;;;;;19.69;45.55;94999.94;5089913;28;20024;-75
2023/08/08 08:01:27;;;;;;;1.60;1.02;;;;;;;19.82;44.43;94989.63;5073075;28;20031;-75
2023/08/08 08:03:52;;;;;;;1.50;0.93;;;;;;;19.83;44.30;94988.59;5089772;28;20029;-75
2023/08/08 08:06:17;;;;;;;1.67;0.80;;;;;;;19.87;42.76;94997.00;5072888;28;20040;-75
2023/08/08 08:08:43;;;;;;;1.65;0.90;;;;;;;19.67;42.96;94987.94;5072679;28;20046;-75
2023/08/08 08:11:08;;;;;;;1.40;0.90;;;;;;;19.48;43.41;94986.63;5056065;28;20027;-75
2023/08/08 08:13:34;;;;;;;1.77;1.08;;;;;;;19.47;44.93;94985.78;5089713;28;20028;-75
2023/08/08 08:15:59;;;;;;;1.48;0.93;;;;;;;19.61;43.38;94992.91;5089608;28;20028;-75
2023/08/08 08:18:25;;;;;;;2.00;0.90;;;;;;;19.63;43.19;94992.72;5090881;28;20024;-75
2023/08/08 08:20:50;;;;;;;1.80;1.05;;;;;;;19.81;43.23;94988.00;5089544;28;20071;-75
2023/08/08 08:23:16;;;;;;;1.48;0.93;;;;;;;19.90;42.22;94980.81;5090809;28;20027;-75
2023/08/08 08:25:41;;;;;;;1.73;0.93;;;;;;;19.88;43.12;94982.81;5089428;28;20039;-74
2023/08/08 08:28:07;;;;;;;1.60;1.00;;;;;;;20.16;42.35;94988.28;5072805;28;20032;-75
2023/08/08 08:30:33;;;;;;;2.28;1.00;;;;;;;19.75;42.12;94972.91;5089680;28;20039;-75
2023/08/08 08:32:59;;;;;;;1.65;0.95;;;;;;;19.83;42.57;94946.44;5056240;28;20028;-75
2023/08/08 08:35:25;;;;;;;1.73;1.10;;;;;;;19.77;42.84;94967.44;5089625;28;20036;-75
2023/08/08 08:37:50;;;;;;;2.95;1.27;;;;;;;19.86;43.26;94964.56;5089496;28;20082;-75
2023/08/08 08:40:16;;;;;;;2.13;1.23;;;;;;;19.97;43.96;94963.25;5091025;28;20478;-75
2023/08/08 08:42:41;;;;;;;1.52;1.10;;;;;;;20.24;42.77;94969.72;5089430;28;20028;-75
2023/08/08 08:45:08;;;;;;;1.63;1.13;;;;;;;20.38;42.98;94972.53;5089437;28;20116;-74
2023/08/08 08:47:34;;;;;;;4.20;1.40;;;;;;;20.36;42.67;94972.72;5072629;28;20097;-74
2023/08/08 08:50:01;;;;;;;1.92;1.13;;;;;;;20.29;42.36;94977.09;5056018;28;20061;-75
2023/08/08 08:52:26;;;;;;;1.50;1.20;;;;;;;20.58;40.87;94978.91;5089413;28;20086;-74
2023/08/08 08:54:52;;;;;;;1.70;1.20;;;;;;;20.73;40.59;94961.22;5055674;28;20111;-74
2023/08/08 08:57:17;;;;;;;2.40;1.10;;;;;;;20.78;41.41;94973.84;5072475;28;20459;-74
2023/08/08 08:59:43;;;;;;;2.25;1.30;;;;;;;20.87;42.53;94970.13;5055734;28;20032;-75
2023/08/08 09:02:08;;;;;;;3.67;1.40;;;;;;;20.79;43.23;94951.75;5072431;28;20028;-74
2023/08/08 09:04:34;;;;;;;2.65;1.25;;;;;;;20.81;42.66;94973.50;5072448;28;20033;-75
2023/08/08 09:06:59;;;;;;;1.95;1.27;;;;;;;21.10;41.02;94963.84;5072570;28;20055;-74
2023/08/08 09:09:25;;;;;;;3.85;1.50;;;;;;;21.14;41.92;94983.56;5072293;28;20404;-75
2023/08/08 09:11:53;;;;;;;4.07;1.52;;;;;;;21.30;41.23;94970.13;5072375;28;20069;-75
2023/08/08 09:14:22;;;;;;;1.80;1.30;;;;;;;21.53;40.47;94982.34;5089164;28;20044;-75
2023/08/08 09:16:48;;;;;;;3.75;1.67;;;;;;;21.30;40.89;94964.84;5091037;28;20020;-75
2023/08/08 09:19:14;;;;;;;2.05;1.60;;;;;;;21.26;40.58;94965.44;5059208;28;20109;-75
2023/08/08 09:21:39;;;;;;;2.13;1.80;;;;;;;21.42;40.75;94975.75;5076254;28;20028;-74
2023/08/08 09:24:06;;;;;;;2.72;1.60;;;;;;;21.74;41.38;94976.22;5092718;28;20035;-75
2023/08/08 09:26:31;;;;;;;2.63;1.38;;;;;;;21.81;40.11;94967.34;5075922;28;20490;-74
2023/08/08 09:28:57;;;;;;;1.77;1.48;;;;;;;21.62;39.30;94962.72;5092512;28;20042;-75
2023/08/08 09:31:25;;;;;;;2.05;1.48;;;;;;;21.55;39.82;94977.69;5092850;28;20039;-75
2023/08/08 09:33:51;;;;;;;2.50;1.40;;;;;;;21.63;40.34;94972.25;5093710;28;20166;-75
2023/08/08 09:36:17;;;;;;;3.45;1.30;;;;;;;21.61;40.12;94984.84;5075788;28;20043;-75
2023/08/08 09:38:43;;;;;;;2.50;1.30;;;;;;;21.54;40.53;94968.13;5092329;28;20465;-74
2023/08/08 09:41:08;;;;;;;2.67;1.20;;;;;;;21.15;40.18;94975.47;5092439;28;20024;-74
2023/08/08 09:43:33;;;;;;;1.70;1.20;;;;;;;21.34;40.68;94986.41;5092357;28;20485;-75
2023/08/08 09:45:59;;;;;;;1.60;1.30;;;;;;;21.18;40.60;94993.59;5058634;28;20032;-75
2023/08/08 09:48:30;;;;;;;1.80;1.45;;;;;;;21.14;41.00;94983.56;5092182;28;20066;-74
2023/08/08 09:50:56;;;;;;;2.80;1.50;;;;;;;21.13;41.27;94972.19;5093298;28;20032;-74
2023/08/08 09:53:22;;;;;;;1.90;1.30;;;;;;;21.22;41.08;94975.53;5075280;28;20082;-75
2023/08/08 09:55:47;;;;;;;4.72;1.50;;;;;;;21.10;41.42;94983.16;5075020;28;20035;-75
2023/08/08 09:58:12;;;;;;;2.22;1.30;;;;;;;21.37;40.33;94989.53;5058524;28;20494;-75
2023/08/08 10:00:38;;;;;;;1.90;1.40;;;;;;;21.38;40.13;94980.59;5093569;28;20032;-75
2023/08/08 10:03:03;;;;;;;1.70;1.20;;;;;;;21.27;41.07;94985.53;5075117;28;20028;-75
2023/08/08 10:05:29;;;;;;;3.08;1.40;;;;;;;21.29;39.96;94968.50;5075273;28;20059;-75
2023/08/08 10:07:55;;;;;;;2.00;1.58;;;;;;;21.28;40.86;94974.78;5075058;28;20509;-75
2023/08/08 10:10:20;;;;;;;1.70;1.30;;;;;;;21.64;39.34;94979.19;5091849;28;20036;-75
2023/08/08 10:12:47;;;;;;;1.80;1.40;;;;;;;21.56;39.07;94972.22;5091772;28;20031;-74
2023/08/08 10:15:12;;;;;;;1.55;1.30;;;;;;;21.28;39.92;94969.47;5091883;28;20036;-75
2023/08/08 10:17:38;;;;;;;1.73;1.27;;;;;;;21.29;39.46;94984.34;5092855;28;20031;-75
2023/08/08 10:20:17;;;;;;;1.65;1.38;;;;;;;21.45;39.31;94971.91;5093125;28;20048;-74
2023/08/08 10:22:44;;;;;;;3.40;1.30;;;;;;;21.25;40.50;94969.06;5091753;28;20031;-75
2023/08/08 10:25:17;;;;;;;2.08;1.40;;;;;;;21.47;40.62;94973.34;5091637;28;20035;-75
2023/08/08 10:27:42;;;;;;;5.20;1.45;;;;;;;21.76;38.43;94972.38;5075622;28;20027;-74
2023/08/08 10:30:12;;;;;;;1.90;1.52;;;;;;;21.51;39.68;94960.59;5092947;28;20032;-75
2023/08/08 10:32:41;;;;;;;1.60;1.38;;;;;;;21.68;38.78;94959.31;5091453;28;20036;-75
2023/08/08 10:35:08;;;;;;;2.30;1.60;;;;;;;21.69;38.61;94949.53;5091429;28;20101;-75
2023/08/08 10:37:33;;;;;;;1.80;1.38;;;;;;;21.77;39.01;94960.78;5091311;28;20085;-75
2023/08/08 10:39:59;;;;;;;2.05;1.70;;;;;;;21.64;39.09;94948.28;5091300;28;20529;-75
2023/08/08 10:42:26;;;;;;;2.17;1.30;;;;;;;21.74;38.39;94947.13;5074604;28;20024;-74
2023/08/08 10:44:56;;;;;;;2.58;1.45;;;;;;;21.86;37.38;94954.31;5091189;28;20036;-75
2023/08/08 10:47:35;;;;;;;2.65;1.30;;;;;;;21.94;37.67;94928.75;5091150;28;20153;-75
2023/08/08 10:50:07;;;;;;;3.45;1.73;;;;;;;21.56;38.46;94929.09;5092453;28;20068;-75
2023/08/08 10:52:35;;;;;;;2.65;1.30;;;;;;;21.55;40.35;94930.13;5092251;28;20027;-75
2023/08/08 10:55:01;;;;;;;1.58;1.40;;;;;;;21.86;39.71;94937.66;5090750;28;20036;-75
2023/08/08 10:57:27;;;;;;;3.17;1.52;;;;;;;22.08;38.41;94927.81;5090932;28;20056;-75
2023/08/08 10:59:52;;;;;;;2.63;1.40;;;;;;;22.20;39.64;94918.34;5090892;28;20115;-75
2023/08/08 11:02:19;;;;;;;2.65;1.60;;;;;;;22.24;39.12;94924.88;5074064;28;20027;-75
2023/08/08 11:04:44;;;;;;;2.42;1.27;;;;;;;22.14;38.75;94916.44;5090854;28;20046;-75
2023/08/08 11:07:10;;;;;;;1.67;1.40;;;;;;;22.30;38.74;94931.22;5073913;28;20028;-75
2023/08/08 11:09:35;;;;;;;3.42;2.03;;;;;;;21.98;38.22;94925.53;5073456;28;20042;-76
2023/08/08 11:12:00;;;;;;;2.88;1.90;;;;;;;22.28;38.74;94936.69;5073830;28;20543;-75
2023/08/08 11:14:26;;;;;;;2.25;1.45;;;;;;;22.21;38.65;94933.22;5091968;28;20091;-75
2023/08/08 11:16:51;;;;;;;2.20;1.77;;;;;;;22.15;38.65;94920.75;5073581;28;20082;-75
2023/08/08 11:19:19;;;;;;;2.83;1.45;;;;;;;22.21;38.75;94924.47;5073537;28;20101;-75
2023/08/08 11:21:44;;;;;;;1.80;1.30;;;;;;;22.28;38.57;94912.06;5090489;28;20503;-76
2023/08/08 11:24:11;;;;;;;2.30;1.20;;;;;;;22.48;37.91;94920.09;5073613;28;20107;-75
2023/08/08 11:26:37;;;;;;;3.15;1.20;;;;;;;22.28;37.90;94910.22;5090357;28;20120;-75
2023/08/08 11:29:03;;;;;;;1.60;1.20;;;;;;;22.26;37.68;94920.22;5090325;28;20031;-75